This is the latest recevied weather packets stored in our database for station/object WA4OPQ-1. If no packets are shown the sender has not sent any weather packets the latest 10 day(s).
| Time | Temp. | Humidity | Pressure | Rain* | Wind** | Luminosity | Snow |
|---|---|---|---|---|---|---|---|
| 1787447159 | 25° C | 96% | 1011.7 hPa | 0 mm | 0 m/s | 0 W/m² | - |
| 1787446614 | 25° C | 95% | 1012 hPa | 0 mm | 0 m/s | 0 W/m² | - |
| 1787446019 | 25.56° C | 96% | 1011.9 hPa | 0 mm | 0 m/s | 0 W/m² | - |
| 1787445539 | 26.11° C | 93% | 1011.7 hPa | 0 mm | 0 m/s | 0 W/m² | - |
| 1787444995 | 26.67° C | 90% | 1011.5 hPa | 0 mm | 0 m/s | 0 W/m² | - |
| 1787444484 | 27.22° C | 88% | 1011.3 hPa | 0 mm | 0 m/s | 0 W/m² | - |
| 1787443949 | 27.22° C | 88% | 1011.6 hPa | 0 mm | 0 m/s | 4 W/m² | - |
| 1787443359 | 27.22° C | 87% | 1011.4 hPa | 0 mm | 0 m/s | 10 W/m² | - |
| 1787442824 | 27.78° C | 86% | 1011.1 hPa | 0 mm | 0 m/s | 18 W/m² | - |
| 1787442274 | 27.78° C | 85% | 1010.9 hPa | 0 mm | 0 m/s | 24 W/m² | - |
| 1787441684 | 27.78° C | 86% | 1011.2 hPa | 0 mm | 0 m/s | 38 W/m² | - |
| 1787441167 | 27.78° C | 85% | 1011.1 hPa | 0 mm | 0 m/s | 39 W/m² | - |
| 1787440604 | 27.78° C | 85% | 1010.6 hPa | 0 mm | 0 m/s | 35 W/m² | - |
| 1787440064 | 27.78° C | 83% | 1010.9 hPa | 0 mm | 0 m/s | 42 W/m² | - |
| 1787439544 | 27.78° C | 83% | 1010.9 hPa | 0 mm | 0 m/s | 47 W/m² | - |
| 1787438994 | 28.33° C | 83% | 1010.9 hPa | 0 mm | 0 m/s | 52 W/m² | - |
| 1787438494 | 28.33° C | 82% | 1011.1 hPa | 0 mm | 0 m/s | 69 W/m² | - |
| 1787437954 | 28.89° C | 84% | 1011.1 hPa | 0 mm | 0 m/s | 86 W/m² | - |
| 1787437454 | 28.33° C | 83% | 1010.8 hPa | 0 mm | 0 m/s | 88 W/m² | - |
| 1787436939 | 28.33° C | 81% | 1010.7 hPa | 0 mm | 0 m/s | 95 W/m² | - |
| 1787436395 | 28.33° C | 83% | 1011.3 hPa | 0 mm | 0 m/s | 83 W/m² | - |
| 1787435834 | 29.44° C | 81% | 1011 hPa | 0 mm | 0 m/s | 90 W/m² | - |
| 1787435294 | 29.44° C | 79% | 1010.9 hPa | 0 mm | 0 m/s | 74 W/m² | - |
| 1787434759 | 30.56° C | 73% | 1010.8 hPa | 0 mm | 0 m/s | 167 W/m² | - |
| 1787434229 | 30.56° C | 74% | 1010.7 hPa | 0 mm | 0 m/s | 167 W/m² | - |
* Rain latest hour (hover to see other rain measurements)
** Current wind speed in m/s (hover to see current wind gust speed)